createdAt,value
2023-03-17T00:09:53.953Z,89.20
2023-03-17T00:19:59.844Z,93.20
2023-03-17T00:30:06.432Z,90.10
2023-03-17T00:40:19.033Z,92.00
2023-03-17T00:50:26.984Z,95.20
2023-03-17T01:00:32.893Z,87.30
2023-03-17T01:10:38.973Z,83.90
2023-03-17T01:20:45.541Z,78.00
2023-03-17T01:30:52.341Z,79.70
2023-03-17T01:40:58.090Z,67.40
2023-03-17T01:51:06.428Z,60.70
2023-03-17T02:01:12.438Z,56.30
2023-03-17T02:11:18.227Z,51.90
2023-03-17T02:21:45.306Z,40.30
2023-03-17T02:31:51.308Z,37.10
2023-03-17T02:41:57.269Z,54.30
2023-03-17T02:52:03.841Z,28.30
2023-03-17T03:02:09.953Z,26.30
2023-03-17T03:12:16.296Z,29.30
2023-03-17T03:22:21.933Z,23.90
2023-03-17T03:42:32.248Z,20.90
2023-03-17T03:52:38.249Z,21.30
2023-03-17T04:02:45.161Z,22.10
2023-03-17T04:12:51.241Z,22.50
2023-03-17T04:22:56.979Z,26.10
2023-03-17T04:43:07.372Z,27.70
2023-03-17T05:03:26.661Z,28.60
2023-03-17T05:13:33.440Z,26.20
2023-03-17T05:23:40.436Z,23.30
2023-03-17T05:33:46.661Z,21.50
2023-03-17T05:43:52.437Z,16.10
2023-03-17T05:53:58.464Z,14.70
2023-03-17T06:04:04.458Z,14.10
2023-03-17T06:14:10.293Z,14.20
2023-03-17T06:24:15.946Z,12.30
2023-03-17T06:34:22.970Z,13.90
2023-03-17T06:44:28.683Z,14.30
2023-03-17T06:54:36.458Z,13.70
2023-03-17T07:04:42.333Z,15.30
2023-03-17T07:14:48.240Z,14.20
2023-03-17T07:24:54.167Z,12.80
2023-03-17T07:35:00.154Z,13.20
2023-03-17T07:45:07.956Z,12.90
2023-03-17T07:55:13.813Z,13.10
2023-03-17T08:05:19.738Z,12.80
2023-03-17T08:15:25.953Z,11.40
2023-03-17T08:25:32.178Z,9.50
2023-03-17T08:35:38.375Z,6.90
2023-03-17T08:45:44.433Z,7.10
2023-03-17T08:55:51.461Z,5.40
2023-03-17T09:05:58.157Z,4.50
2023-03-17T09:16:04.200Z,4.80
2023-03-17T09:26:10.327Z,5.10
2023-03-17T09:36:15.993Z,7.70
2023-03-17T09:46:36.542Z,5.30
2023-03-17T09:56:47.290Z,6.10
2023-03-17T10:06:56.470Z,4.50
2023-03-17T10:17:13.671Z,5.10
2023-03-17T10:27:20.102Z,5.00
2023-03-17T10:37:29.393Z,5.40
2023-03-17T10:47:38.231Z,5.70
2023-03-17T10:57:53.932Z,4.60
2023-03-17T11:08:11.298Z,3.90
2023-03-17T11:18:22.960Z,3.90
2023-03-17T11:28:35.153Z,4.00
2023-03-17T11:38:51.719Z,4.00
2023-03-17T11:49:04.448Z,4.00
2023-03-17T11:59:27.072Z,3.30
2023-03-17T12:09:37.285Z,3.20
2023-03-17T12:19:57.415Z,5.10
2023-03-17T12:30:09.876Z,3.40
2023-03-17T12:40:21.474Z,5.10
2023-03-17T12:50:51.927Z,4.90
2023-03-17T13:01:07.472Z,5.30
2023-03-17T13:11:28.109Z,3.40
2023-03-17T13:21:36.419Z,4.10
2023-03-17T13:31:43.386Z,5.10
2023-03-17T13:42:17.671Z,4.10
2023-03-17T13:52:32.293Z,3.90
2023-03-17T14:02:41.268Z,3.30
2023-03-17T14:12:52.338Z,4.10
2023-03-17T14:23:01.057Z,3.00
2023-03-17T14:33:25.160Z,3.30
2023-03-17T14:43:31.256Z,2.90
2023-03-17T14:53:46.834Z,3.00
2023-03-17T15:04:00.011Z,3.70
2023-03-17T15:14:21.386Z,3.60
2023-03-17T15:24:39.692Z,4.10
2023-03-17T15:34:46.294Z,3.70
2023-03-17T15:44:53.313Z,4.00
2023-03-17T15:55:01.493Z,4.20
2023-03-17T16:05:18.662Z,5.00
2023-03-17T16:15:27.150Z,5.40
2023-03-17T16:25:33.752Z,6.20
2023-03-17T16:35:39.456Z,5.20
2023-03-17T16:45:45.144Z,6.00
2023-03-17T16:55:51.772Z,6.00
2023-03-17T17:05:57.429Z,6.60
2023-03-17T17:16:05.024Z,4.80
2023-03-17T17:26:10.862Z,5.90
2023-03-17T17:36:18.475Z,5.90
2023-03-17T17:46:24.973Z,6.90
2023-03-17T17:56:30.898Z,6.20
2023-03-17T18:06:36.767Z,6.60
2023-03-17T18:16:43.044Z,6.10
2023-03-17T18:26:48.730Z,7.10
2023-03-17T18:36:56.879Z,5.90
2023-03-17T18:47:02.688Z,6.90
2023-03-17T18:57:08.525Z,6.50
2023-03-17T19:07:14.402Z,6.60
2023-03-17T19:17:20.366Z,6.90
2023-03-17T19:27:26.379Z,5.60
2023-03-17T19:37:32.517Z,6.30
2023-03-17T19:47:38.697Z,7.50
2023-03-17T19:57:44.531Z,7.10
2023-03-17T20:07:50.307Z,7.30
2023-03-17T20:17:56.071Z,8.00
2023-03-17T20:28:01.826Z,10.00
2023-03-17T20:38:08.354Z,9.80
2023-03-17T20:48:14.655Z,11.10
2023-03-17T20:58:21.429Z,10.90
2023-03-17T21:08:27.155Z,10.90
2023-03-17T21:18:32.903Z,9.70
2023-03-17T21:28:41.602Z,9.40
2023-03-17T21:38:47.506Z,9.50
2023-03-17T21:48:54.132Z,10.30
2023-03-17T21:58:59.952Z,8.80
2023-03-17T22:09:07.808Z,9.10
2023-03-17T22:19:13.958Z,8.40
2023-03-17T22:29:20.908Z,7.80
2023-03-17T22:39:28.707Z,8.90
2023-03-17T22:49:35.579Z,9.00
2023-03-17T22:59:42.625Z,7.90
2023-03-17T23:09:48.816Z,8.10
2023-03-17T23:19:55.367Z,7.30
2023-03-17T23:30:01.232Z,7.60
2023-03-17T23:40:09.309Z,6.90
2023-03-17T23:50:16.731Z,7.80
